Time,TemperatureF,DewpointF,PressureIn,WindDirection,WindDirectionDegrees,WindSpeedMPH,WindSpeedGustMPH,Humidity,HourlyPrecipIn,Conditions,Clouds,dailyrainin,SoftwareType,DateUTC
2013-02-18 00:07:00,17.1,3.3,30.04,North,0,1.1,5.1,54,2.59,,,0.02,WUHU216HW,2013-02-18 05:07:00,
2013-02-18 00:18:00,17.1,3.3,30.04,NNW,338,3.4,6.0,54,2.59,,,0.02,WUHU216HW,2013-02-18 05:18:00,
2013-02-18 00:28:00,17.1,3.3,30.04,West,270,4.0,9.4,54,2.59,,,0.02,WUHU216HW,2013-02-18 05:28:00,
2013-02-18 00:38:00,17.1,3.3,30.05,North,0,4.7,7.6,54,2.59,,,0.02,WUHU216HW,2013-02-18 05:38:00,
2013-02-18 00:48:00,17.1,3.3,30.05,NW,315,8.5,8.5,54,2.59,,,0.02,WUHU216HW,2013-02-18 05:48:00,
2013-02-18 00:58:00,16.9,3.9,30.05,NNW,338,2.5,5.4,56,2.59,,,0.02,WUHU216HW,2013-02-18 05:58:00,
2013-02-18 01:08:00,16.9,4.6,30.05,NNW,338,3.4,6.7,58,2.59,,,0.03,WUHU216HW,2013-02-18 06:08:00,
2013-02-18 01:18:00,16.9,5.1,30.05,NW,315,2.7,6.3,59,2.59,,,0.03,WUHU216HW,2013-02-18 06:18:00,
2013-02-18 01:28:00,16.9,5.1,30.06,North,0,4.0,11.4,59,2.59,,,0.03,WUHU216HW,2013-02-18 06:28:00,
2013-02-18 01:38:00,16.9,4.6,30.06,WNW,293,4.7,7.2,58,2.59,,,0.03,WUHU216HW,2013-02-18 06:38:00,
2013-02-18 01:48:00,16.9,4.6,30.06,WNW,293,4.3,11.6,58,2.59,,,0.03,WUHU216HW,2013-02-18 06:48:00,
2013-02-18 01:58:00,16.9,4.6,30.06,NNW,338,4.7,12.3,58,2.59,,,0.03,WUHU216HW,2013-02-18 06:58:00,
2013-02-18 02:08:00,16.9,4.6,30.06,NW,315,3.1,7.6,58,0.00,,,0.00,WUHU216HW,2013-02-18 07:08:00,
2013-02-18 02:18:00,16.7,4.4,30.06,North,0,5.6,6.9,58,0.00,,,0.00,WUHU216HW,2013-02-18 07:18:00,
2013-02-18 02:28:00,16.7,4.4,30.06,NNW,338,5.4,7.4,58,0.00,,,0.00,WUHU216HW,2013-02-18 07:28:00,
2013-02-18 02:38:00,16.7,4.1,30.07,NNE,23,3.6,6.7,57,0.00,,,0.00,WUHU216HW,2013-02-18 07:38:00,
2013-02-18 02:48:00,16.6,4.2,30.08,WNW,293,2.9,4.9,58,0.00,,,0.00,WUHU216HW,2013-02-18 07:48:00,
2013-02-18 02:58:00,16.4,4.1,30.08,West,270,4.0,5.8,58,0.00,,,0.00,WUHU216HW,2013-02-18 07:58:00,
2013-02-18 03:08:00,16.4,3.7,30.08,West,270,0.9,6.9,57,0.00,,,0.00,WUHU216HW,2013-02-18 08:08:00,
2013-02-18 03:18:00,16.2,3.5,30.08,NW,315,1.6,6.3,57,0.00,,,0.00,WUHU216HW,2013-02-18 08:18:00,
2013-02-18 03:28:00,16.2,4.0,30.09,NNE,23,0.7,7.8,58,0.00,,,0.00,WUHU216HW,2013-02-18 08:28:00,
2013-02-18 03:38:00,16.2,4.0,30.09,WSW,248,1.1,4.7,58,0.00,,,0.00,WUHU216HW,2013-02-18 08:38:00,
2013-02-18 03:48:00,16.2,4.0,30.09,WNW,293,5.4,7.6,58,0.00,,,0.00,WUHU216HW,2013-02-18 08:48:00,
2013-02-18 03:58:00,16.2,4.0,30.09,WNW,293,7.6,7.6,58,0.00,,,0.00,WUHU216HW,2013-02-18 08:58:00,
2013-02-18 04:08:00,16.0,3.8,30.10,NNW,338,1.1,8.5,58,0.00,,,0.00,WUHU216HW,2013-02-18 09:08:00,
2013-02-18 04:18:00,16.0,3.8,30.11,North,0,1.8,4.9,58,0.00,,,0.00,WUHU216HW,2013-02-18 09:18:00,
2013-02-18 04:29:00,16.0,3.8,30.12,North,0,2.9,5.6,58,0.00,,,0.00,WUHU216HW,2013-02-18 09:29:00,
2013-02-18 04:39:00,15.8,4.0,30.12,North,0,5.4,5.4,59,0.00,,,0.00,WUHU216HW,2013-02-18 09:39:00,
2013-02-18 04:49:00,15.7,3.8,30.13,WNW,293,1.8,4.7,59,0.00,,,0.00,WUHU216HW,2013-02-18 09:49:00,
2013-02-18 04:59:00,15.7,3.8,30.14,WSW,248,2.5,7.6,59,0.00,,,0.00,WUHU216HW,2013-02-18 09:59:00,
2013-02-18 05:09:00,15.8,4.0,30.15,NW,315,4.0,7.6,59,0.00,,,0.00,WUHU216HW,2013-02-18 10:09:00,
2013-02-18 05:19:00,15.7,4.1,30.16,WSW,248,3.4,5.8,60,0.00,,,0.00,WUHU216HW,2013-02-18 10:19:00,
2013-02-18 05:29:00,15.5,4.0,30.16,NNW,338,5.6,5.6,60,0.00,,,0.00,WUHU216HW,2013-02-18 10:29:00,
2013-02-18 05:39:00,15.5,4.0,30.16,NW,315,1.3,4.7,60,0.00,,,0.00,WUHU216HW,2013-02-18 10:39:00,
2013-02-18 05:49:00,15.5,4.0,30.16,WSW,248,1.6,5.8,60,0.00,,,0.00,WUHU216HW,2013-02-18 10:49:00,
2013-02-18 05:59:00,15.5,4.3,30.17,West,270,0.9,3.4,61,0.00,,,0.00,WUHU216HW,2013-02-18 10:59:00,
2013-02-18 06:09:00,15.5,4.3,30.17,NW,315,0.9,4.5,61,0.00,,,0.00,WUHU216HW,2013-02-18 11:09:00,
2013-02-18 06:19:00,15.5,4.3,30.18,WNW,293,2.7,4.3,61,0.00,,,0.00,WUHU216HW,2013-02-18 11:19:00,
2013-02-18 06:29:00,15.5,4.3,30.19,NNW,338,1.1,4.7,61,0.00,,,0.00,WUHU216HW,2013-02-18 11:29:00,
2013-02-18 06:39:00,15.5,4.3,30.19,WSW,248,6.5,6.5,61,0.00,,,0.00,WUHU216HW,2013-02-18 11:39:00,
2013-02-18 06:49:00,15.5,4.3,30.19,NW,315,1.8,4.9,61,0.00,,,0.00,WUHU216HW,2013-02-18 11:49:00,
2013-02-18 06:59:00,15.5,4.3,30.20,NW,315,0.7,6.9,61,0.00,,,0.00,WUHU216HW,2013-02-18 11:59:00,
2013-02-18 07:09:00,15.5,4.3,30.20,West,270,2.2,6.7,61,0.00,,,0.00,WUHU216HW,2013-02-18 12:09:00,
2013-02-18 07:19:00,15.5,4.3,30.20,NW,315,6.0,6.0,61,0.00,,,0.00,WUHU216HW,2013-02-18 12:19:00,
2013-02-18 07:29:00,15.7,4.5,30.21,North,0,2.0,5.4,61,0.00,,,0.00,WUHU216HW,2013-02-18 12:29:00,
2013-02-18 07:39:00,15.8,4.7,30.22,NNW,338,2.2,3.8,61,0.00,,,0.00,WUHU216HW,2013-02-18 12:39:00,
2013-02-18 07:49:00,16.2,5.1,30.22,North,0,0.4,6.3,61,0.00,,,0.00,WUHU216HW,2013-02-18 12:49:00,
2013-02-18 07:59:00,16.4,5.2,30.22,WNW,293,1.8,3.4,61,0.00,,,0.00,WUHU216HW,2013-02-18 12:59:00,
2013-02-18 08:09:00,16.9,5.4,30.23,West,270,0.4,7.4,60,0.00,,,0.00,WUHU216HW,2013-02-18 13:09:00,
2013-02-18 08:19:00,17.3,5.8,30.23,NW,315,2.7,7.2,60,0.00,,,0.00,WUHU216HW,2013-02-18 13:19:00,
2013-02-18 08:29:00,17.6,5.8,30.23,West,270,5.4,6.0,59,0.00,,,0.00,WUHU216HW,2013-02-18 13:29:00,
2013-02-18 08:39:00,18.4,5.9,30.24,ENE,68,3.8,4.7,58,0.00,,,0.00,WUHU216HW,2013-02-18 13:39:00,
2013-02-18 08:49:00,18.7,6.0,30.24,West,270,1.1,6.5,57,0.00,,,0.00,WUHU216HW,2013-02-18 13:49:00,
2013-02-18 08:59:00,19.4,6.6,30.25,WSW,248,3.4,5.1,57,0.00,,,0.00,WUHU216HW,2013-02-18 13:59:00,
2013-02-18 09:09:00,19.8,6.5,30.25,NNW,338,2.2,7.2,56,0.00,,,0.00,WUHU216HW,2013-02-18 14:09:00,
2013-02-18 09:19:00,20.9,7.1,30.26,West,270,3.8,5.4,55,0.00,,,0.00,WUHU216HW,2013-02-18 14:19:00,
2013-02-18 09:29:00,21.2,7.0,30.27,NNW,338,1.8,5.8,54,0.00,,,0.00,WUHU216HW,2013-02-18 14:29:00,
2013-02-18 09:39:00,22.5,7.8,30.26,NNW,338,1.6,7.2,53,0.00,,,0.00,WUHU216HW,2013-02-18 14:39:00,
2013-02-18 09:49:00,23.4,7.9,30.26,West,270,5.1,5.1,51,0.00,,,0.00,WUHU216HW,2013-02-18 14:49:00,
2013-02-18 09:59:00,23.0,7.6,30.27,West,270,4.9,6.0,51,0.00,,,0.00,WUHU216HW,2013-02-18 14:59:00,
2013-02-18 10:09:00,23.0,7.6,30.26,NW,315,5.8,5.8,51,0.00,,,0.00,WUHU216HW,2013-02-18 15:09:00,
2013-02-18 10:19:00,23.6,7.7,30.26,West,270,2.2,7.6,50,0.00,,,0.00,WUHU216HW,2013-02-18 15:19:00,
2013-02-18 10:29:00,24.1,7.7,30.27,North,0,4.0,5.4,49,0.00,,,0.00,WUHU216HW,2013-02-18 15:29:00,
2013-02-18 10:39:00,24.5,8.5,30.27,NW,315,2.5,6.3,50,0.00,,,0.00,WUHU216HW,2013-02-18 15:39:00,
2013-02-18 10:49:00,25.2,8.6,30.28,North,0,1.1,6.5,49,0.00,,,0.00,WUHU216HW,2013-02-18 15:49:00,
2013-02-18 10:59:00,25.7,8.6,30.27,WNW,293,2.0,4.9,48,0.00,,,0.00,WUHU216HW,2013-02-18 15:59:00,
2013-02-18 11:09:00,26.1,8.5,30.27,North,0,2.5,5.8,47,0.00,,,0.00,WUHU216HW,2013-02-18 16:09:00,
2013-02-18 11:19:00,26.5,8.8,30.27,North,0,2.5,6.3,47,0.00,,,0.00,WUHU216HW,2013-02-18 16:19:00,
2013-02-18 11:30:00,27.7,10.0,30.27,NNW,338,1.3,3.6,47,0.00,,,0.00,WUHU216HW,2013-02-18 16:30:00,
2013-02-18 11:40:00,28.1,9.9,30.27,WSW,248,3.1,3.4,46,0.00,,,0.00,WUHU216HW,2013-02-18 16:40:00,
2013-02-18 11:50:00,28.4,10.3,30.27,North,0,4.0,4.7,46,0.00,,,0.00,WUHU216HW,2013-02-18 16:50:00,
2013-02-18 12:00:00,27.7,9.0,30.27,NW,315,2.5,6.9,45,0.00,,,0.00,WUHU216HW,2013-02-18 17:00:00,
2013-02-18 12:10:00,28.8,10.1,30.27,West,270,3.8,5.1,45,0.00,,,0.00,WUHU216HW,2013-02-18 17:10:00,
2013-02-18 12:20:00,28.3,9.1,30.26,West,270,5.1,5.6,44,0.00,,,0.00,WUHU216HW,2013-02-18 17:20:00,
2013-02-18 12:30:00,28.6,8.9,30.26,WNW,293,1.1,5.1,43,0.00,,,0.00,WUHU216HW,2013-02-18 17:30:00,
2013-02-18 12:40:00,29.2,8.8,30.25,NW,315,6.5,6.5,42,0.00,,,0.00,WUHU216HW,2013-02-18 17:40:00,
2013-02-18 12:50:00,29.7,9.8,30.24,NNW,338,1.6,4.3,43,0.00,,,0.00,WUHU216HW,2013-02-18 17:50:00,
2013-02-18 13:00:00,30.2,9.8,30.24,NNW,338,2.2,5.4,42,0.00,,,0.00,WUHU216HW,2013-02-18 18:00:00,
2013-02-18 13:10:00,30.4,10.0,30.23,North,0,5.4,5.4,42,0.00,,,0.00,WUHU216HW,2013-02-18 18:10:00,
2013-02-18 13:20:00,31.1,10.2,30.23,NNW,338,1.1,4.5,41,0.00,,,0.00,WUHU216HW,2013-02-18 18:20:00,
2013-02-18 13:31:00,31.3,10.3,30.22,West,270,4.7,4.7,41,0.00,,,0.00,WUHU216HW,2013-02-18 18:31:00,
2013-02-18 13:40:00,31.5,10.4,30.22,NNW,338,3.4,3.4,41,0.00,,,0.00,WUHU216HW,2013-02-18 18:40:00,
2013-02-18 13:50:00,31.9,10.8,30.23,NW,315,0.7,4.0,41,0.00,,,0.00,WUHU216HW,2013-02-18 18:50:00,
2013-02-18 14:00:00,31.9,9.6,30.22,West,270,2.2,4.9,39,0.00,,,0.00,WUHU216HW,2013-02-18 19:00:00,
2013-02-18 14:10:00,32.2,10.6,30.22,NW,315,1.1,5.8,40,0.01,,,0.01,WUHU216HW,2013-02-18 19:10:00,
2013-02-18 14:20:00,32.8,11.1,30.22,NW,315,2.5,3.4,40,0.01,,,0.01,WUHU216HW,2013-02-18 19:20:00,
2013-02-18 14:30:00,33.1,11.4,30.22,NW,315,1.8,3.4,40,0.01,,,0.01,WUHU216HW,2013-02-18 19:30:00,
2013-02-18 14:40:00,32.9,10.6,30.22,NW,315,2.5,4.9,39,0.01,,,0.01,WUHU216HW,2013-02-18 19:40:00,
2013-02-18 14:50:00,32.8,11.1,30.22,WNW,293,2.2,6.0,40,0.01,,,0.01,WUHU216HW,2013-02-18 19:50:00,
2013-02-18 15:00:00,32.9,11.3,30.21,NNW,338,1.8,4.0,40,0.01,,,0.01,WUHU216HW,2013-02-18 20:00:00,
2013-02-18 15:10:00,33.5,11.7,30.21,West,270,1.6,3.1,40,0.01,,,0.02,WUHU216HW,2013-02-18 20:10:00,
2013-02-18 15:20:00,33.7,11.9,30.22,West,270,2.5,3.4,40,0.01,,,0.02,WUHU216HW,2013-02-18 20:20:00,
2013-02-18 15:31:00,33.5,11.7,30.22,WSW,248,1.8,3.6,40,0.01,,,0.02,WUHU216HW,2013-02-18 20:31:00,
2013-02-18 15:41:00,33.5,11.1,30.22,NW,315,2.7,4.7,39,0.01,,,0.02,WUHU216HW,2013-02-18 20:41:00,
2013-02-18 15:51:00,33.7,11.3,30.22,SW,225,1.3,4.3,39,0.01,,,0.02,WUHU216HW,2013-02-18 20:51:00,
2013-02-18 16:01:00,33.7,11.9,30.22,WSW,248,0.9,3.8,40,0.01,,,0.02,WUHU216HW,2013-02-18 21:01:00,
2013-02-18 16:11:00,33.7,11.9,30.22,NNW,338,2.2,2.7,40,0.01,,,0.03,WUHU216HW,2013-02-18 21:11:00,
2013-02-18 16:21:00,33.8,12.1,30.22,WNW,293,0.9,3.4,40,0.00,,,0.00,WUHU216HW,2013-02-18 21:21:00,
2013-02-18 16:31:00,33.7,11.9,30.22,North,0,0.0,2.5,40,0.00,,,0.00,WUHU216HW,2013-02-18 21:31:00,
2013-02-18 16:41:00,33.5,11.7,30.22,West,270,1.6,2.5,40,0.01,,,0.03,WUHU216HW,2013-02-18 21:41:00,
2013-02-18 16:51:00,33.5,11.7,30.22,West,270,1.8,4.7,40,0.01,,,0.03,WUHU216HW,2013-02-18 21:51:00,
2013-02-18 17:01:00,33.3,11.6,30.22,SSW,203,0.7,2.9,40,0.00,,,0.03,WUHU216HW,2013-02-18 22:01:00,
2013-02-18 17:11:00,33.1,11.9,30.22,West,270,0.7,3.4,41,0.01,,,0.04,WUHU216HW,2013-02-18 22:11:00,
2013-02-18 17:21:00,32.8,11.6,30.22,NW,315,0.9,1.3,41,0.01,,,0.04,WUHU216HW,2013-02-18 22:21:00,
2013-02-18 17:31:00,32.6,12.0,30.22,WSW,248,1.1,1.8,42,0.01,,,0.04,WUHU216HW,2013-02-18 22:31:00,
2013-02-18 17:41:00,32.2,11.6,30.22,WSW,248,0.0,1.1,42,0.01,,,0.04,WUHU216HW,2013-02-18 22:41:00,
2013-02-18 17:51:00,31.9,11.8,30.22,WNW,293,0.2,1.1,43,0.01,,,0.04,WUHU216HW,2013-02-18 22:51:00,
2013-02-18 18:01:00,31.5,12.0,30.23,West,270,0.0,0.9,44,0.01,,,0.04,WUHU216HW,2013-02-18 23:01:00,
2013-02-18 18:11:00,31.1,12.2,30.23,West,270,0.2,0.4,45,0.01,,,0.05,WUHU216HW,2013-02-18 23:11:00,
2013-02-18 18:21:00,30.8,11.8,30.23,West,270,0.0,0.7,45,0.01,,,0.05,WUHU216HW,2013-02-18 23:21:00,
2013-02-18 18:26:00,30.8,11.8,30.24,WSW,248,0.0,0.7,45,2.59,,,0.20,WUHU216HW,2013-02-18 23:26:00,
2013-02-18 18:31:00,30.6,11.7,30.24,West,270,0.0,0.4,45,0.01,,,0.05,WUHU216HW,2013-02-18 23:31:00,
2013-02-18 18:41:00,30.4,12.0,30.24,WNW,293,0.0,0.4,46,0.01,,,0.05,WUHU216HW,2013-02-18 23:41:00,
2013-02-18 18:51:00,29.9,11.5,30.24,SW,225,0.0,0.4,46,0.01,,,0.05,WUHU216HW,2013-02-18 23:51:00,
2013-02-18 18:57:00,29.9,12.1,30.24,SW,225,0.0,0.0,47,2.59,,,0.20,WUHU216HW,2013-02-18 23:57:00,
2013-02-18 19:02:00,29.7,11.9,30.24,SW,225,0.0,0.0,47,0.00,,,0.00,WUHU216HW,2013-02-19 00:02:00,
2013-02-18 19:11:00,29.2,11.3,30.24,SW,225,0.0,0.0,47,0.01,,,0.06,WUHU216HW,2013-02-19 00:11:00,
2013-02-18 19:17:00,29.2,11.9,30.24,SW,225,0.0,0.0,48,2.59,,,0.21,WUHU216HW,2013-02-19 00:17:00,
2013-02-18 19:22:00,28.8,11.5,30.24,SW,225,0.0,0.0,48,0.00,,,0.00,WUHU216HW,2013-02-19 00:22:00,
2013-02-18 19:27:00,28.6,11.4,30.24,SW,225,0.0,0.0,48,2.59,,,0.21,WUHU216HW,2013-02-19 00:27:00,
2013-02-18 19:32:00,28.4,11.3,30.24,SW,225,0.0,0.0,48,0.00,,,0.00,WUHU216HW,2013-02-19 00:32:00,
2013-02-18 19:37:00,28.3,11.1,30.24,WSW,248,0.0,0.0,48,2.59,,,0.21,WUHU216HW,2013-02-19 00:37:00,
2013-02-18 19:47:00,28.1,10.9,30.24,WSW,248,0.0,0.0,48,2.59,,,0.21,WUHU216HW,2013-02-19 00:47:00,
2013-02-18 19:57:00,28.1,11.9,30.24,West,270,0.0,0.4,50,2.59,,,0.21,WUHU216HW,2013-02-19 00:57:00,
2013-02-18 20:07:00,27.7,11.5,30.24,West,270,0.0,0.0,50,2.59,,,0.22,WUHU216HW,2013-02-19 01:07:00,
2013-02-18 20:17:00,27.7,12.0,30.23,WSW,248,0.0,0.9,51,2.59,,,0.22,WUHU216HW,2013-02-19 01:17:00,
2013-02-18 20:27:00,27.9,12.5,30.23,NW,315,0.0,0.2,52,2.59,,,0.22,WUHU216HW,2013-02-19 01:27:00,
2013-02-18 20:37:00,27.9,12.2,30.23,NW,315,0.0,0.0,51,2.59,,,0.22,WUHU216HW,2013-02-19 01:37:00,
2013-02-18 20:48:00,27.7,12.3,30.23,NW,315,0.0,0.0,52,2.59,,,0.22,WUHU216HW,2013-02-19 01:48:00,
2013-02-18 20:58:00,27.4,12.0,30.22,West,270,0.0,0.0,52,2.59,,,0.22,WUHU216HW,2013-02-19 01:58:00,
2013-02-18 21:08:00,27.5,13.0,30.23,WNW,293,0.2,0.2,54,2.59,,,0.23,WUHU216HW,2013-02-19 02:08:00,
2013-02-18 21:18:00,27.5,13.9,30.23,NW,315,0.4,0.4,56,2.59,,,0.23,WUHU216HW,2013-02-19 02:18:00,
2013-02-18 21:28:00,27.7,14.1,30.23,NW,315,0.0,0.2,56,2.59,,,0.23,WUHU216HW,2013-02-19 02:28:00,
2013-02-18 21:38:00,27.9,14.6,30.23,West,270,0.0,0.4,57,2.59,,,0.23,WUHU216HW,2013-02-19 02:38:00,
2013-02-18 21:48:00,28.1,14.4,30.23,West,270,0.4,0.4,56,2.59,,,0.23,WUHU216HW,2013-02-19 02:48:00,
2013-02-18 21:58:00,28.3,14.6,30.23,NNW,338,0.7,0.7,56,2.59,,,0.23,WUHU216HW,2013-02-19 02:58:00,
2013-02-18 22:08:00,28.4,14.8,30.23,West,270,0.4,0.9,56,2.59,,,0.24,WUHU216HW,2013-02-19 03:08:00,
2013-02-18 22:18:00,28.4,14.8,30.23,West,270,0.0,0.9,56,2.59,,,0.24,WUHU216HW,2013-02-19 03:18:00,
2013-02-18 22:28:00,28.4,14.8,30.23,West,270,0.0,0.9,56,2.59,,,0.24,WUHU216HW,2013-02-19 03:28:00,
2013-02-18 22:39:00,28.4,14.8,30.23,West,270,0.2,0.9,56,2.59,,,0.24,WUHU216HW,2013-02-19 03:39:00,
2013-02-18 22:49:00,28.3,14.6,30.23,West,270,0.0,1.1,56,2.59,,,0.24,WUHU216HW,2013-02-19 03:49:00,
2013-02-18 22:59:00,28.3,14.6,30.23,WNW,293,0.0,1.1,56,2.59,,,0.24,WUHU216HW,2013-02-19 03:59:00,
2013-02-18 23:09:00,28.3,14.1,30.22,WNW,293,0.0,0.2,55,2.59,,,0.25,WUHU216HW,2013-02-19 04:09:00,
2013-02-18 23:19:00,28.3,14.1,30.22,WNW,293,0.0,0.0,55,2.59,,,0.25,WUHU216HW,2013-02-19 04:19:00,
2013-02-18 23:29:00,28.1,14.0,30.22,WNW,293,0.0,0.0,55,2.59,,,0.25,WUHU216HW,2013-02-19 04:29:00,
2013-02-18 23:39:00,27.7,14.1,30.22,WNW,293,0.0,0.0,56,2.59,,,0.25,WUHU216HW,2013-02-19 04:39:00,
2013-02-18 23:49:00,27.5,13.9,30.22,WNW,293,0.0,0.0,56,2.59,,,0.25,WUHU216HW,2013-02-19 04:49:00,
2013-02-18 23:59:00,27.2,13.9,30.21,West,270,0.4,0.4,57,2.59,,,0.25,WUHU216HW,2013-02-19 04:59:00,